Time;durP1;ratioP1;P1;durP2;ratioP2;P2;SDS_P1;SDS_P2;PMS_P1;PMS_P2;Temp;Humidity;BMP_temperature;BMP_pressure;BME280_temperature;BME280_humidity;BME280_pressure;Samples;Min_cycle;Max_cycle;Signal;HPM_P1;HPM_P2
2022/06/29 00:02:07;;;;;;;7.95;2.95;;;;;;;18.95;93.54;99966.19;10417150;28;20045;-67
2022/06/29 00:07:07;;;;;;;6.47;3.15;;;;;;;18.75;93.77;99955.72;10417298;28;20030;-67
2022/06/29 00:12:08;;;;;;;5.50;2.95;;;;;;;18.78;94.25;99952.56;10416151;28;20114;-67
2022/06/29 00:17:13;;;;;;;8.90;3.25;;;;;;;18.60;95.26;99921.97;10416646;28;20098;-67
2022/06/29 00:22:15;;;;;;;9.57;3.00;;;;;;;18.42;94.35;99917.47;10415669;28;20087;-67
2022/06/29 00:27:16;;;;;;;5.07;2.38;;;;;;;18.50;94.71;99931.66;10415388;28;20046;-67
2022/06/29 00:32:17;;;;;;;7.07;2.83;;;;;;;18.52;95.47;99954.59;10415342;28;20038;-67
2022/06/29 00:37:18;;;;;;;12.77;3.33;;;;;;;18.48;95.54;99946.16;10415048;28;20053;-67
2022/06/29 00:42:19;;;;;;;10.65;2.70;;;;;;;18.24;95.99;99922.91;10416147;28;20171;-67
2022/06/29 00:47:21;;;;;;;6.95;2.92;;;;;;;18.19;96.52;99930.88;10415190;28;20038;-67
2022/06/29 00:52:24;;;;;;;9.70;3.00;;;;;;;18.34;97.81;99966.22;10414648;28;20481;-67
2022/06/29 00:57:28;;;;;;;12.25;2.97;;;;;;;18.24;96.50;99952.50;10409990;28;20038;-67
2022/06/29 01:02:33;;;;;;;;;;;;;;;18.40;96.45;99973.38;10407221;28;20046;-69
2022/06/29 01:07:34;;;;;;;15.13;3.25;;;;;;;17.95;96.46;99921.88;10374224;28;19925;-68
2022/06/29 01:12:35;;;;;;;12.32;2.72;;;;;;;17.40;96.47;99847.50;10373627;28;20085;-67
2022/06/29 01:17:36;;;;;;;12.38;3.35;;;;;;;18.08;97.13;99980.03;10372889;28;20101;-67
2022/06/29 01:22:38;;;;;;;9.85;3.03;;;;;;;18.09;98.08;99982.47;10412542;28;20052;-68
2022/06/29 01:27:38;;;;;;;10.77;3.30;;;;;;;18.07;98.07;99986.41;10429164;28;20041;-67
2022/06/29 01:32:40;;;;;;;33.80;4.32;;;;;;;17.91;97.40;99977.13;10413710;28;20053;-67
2022/06/29 01:37:41;;;;;;;14.38;3.28;;;;;;;18.03;97.21;100016.44;10413692;28;20072;-67
2022/06/29 01:42:42;;;;;;;18.40;3.58;;;;;;;18.05;97.16;100021.59;10412766;28;20085;-67
2022/06/29 01:47:43;;;;;;;9.38;2.97;;;;;;;17.28;97.76;99903.00;10413755;28;20131;-67
2022/06/29 01:52:44;;;;;;;10.02;3.20;;;;;;;18.03;99.00;100029.06;10412757;28;20095;-67
2022/06/29 01:57:45;;;;;;;12.68;3.50;;;;;;;17.99;99.28;100017.94;10413337;28;20048;-67
2022/06/29 02:02:45;;;;;;;10.35;4.10;;;;;;;17.48;98.94;99908.16;10412548;28;20037;-67
2022/06/29 02:07:46;;;;;;;22.23;4.13;;;;;;;17.74;98.40;99926.66;10413718;28;20045;-69
2022/06/29 02:12:47;;;;;;;9.10;3.75;;;;;;;18.79;97.10;100059.19;10412491;28;20037;-67
2022/06/29 02:17:48;;;;;;;15.95;4.15;;;;;;;17.45;95.89;99810.06;10412198;28;20128;-67
2022/06/29 02:22:49;;;;;;;5.85;3.35;;;;;;;19.10;94.43;100042.75;10412316;28;20041;-67
2022/06/29 02:27:50;;;;;;;13.77;3.25;;;;;;;19.55;92.51;100047.59;10413084;28;20543;-67
2022/06/29 02:38:10;;;;;;;19.50;4.03;;;;;;;19.77;91.46;100064.03;10412077;28;20505;-67
2022/06/29 02:43:10;;;;;;;6.18;3.33;;;;;;;19.27;90.59;99983.66;10411637;28;20085;-67
2022/06/29 02:48:11;;;;;;;8.32;3.67;;;;;;;19.58;89.95;100014.78;10412545;28;20092;-67
2022/06/29 02:53:12;;;;;;;6.95;4.32;;;;;;;19.65;91.08;100027.34;10411529;28;20050;-67
2022/06/29 02:58:13;;;;;;;8.80;3.78;;;;;;;20.07;90.93;100079.22;10415475;28;20072;-67
2022/06/29 03:03:13;;;;;;;8.82;3.83;;;;;;;20.08;90.14;100061.19;10418796;28;20044;-67
2022/06/29 03:08:14;;;;;;;11.25;4.53;;;;;;;20.19;89.86;100093.53;10419266;28;20041;-68
2022/06/29 03:13:15;;;;;;;9.70;3.90;;;;;;;19.31;90.45;99948.97;10418547;28;20064;-67
2022/06/29 03:18:16;;;;;;;8.18;4.18;;;;;;;20.28;89.14;100078.59;10419245;28;20042;-68
2022/06/29 03:23:17;;;;;;;8.68;3.90;;;;;;;20.51;87.24;100093.91;10418114;28;20037;-67
2022/06/29 03:28:17;;;;;;;16.23;4.60;;;;;;;20.93;83.21;99963.22;10418552;28;20052;-67
2022/06/29 03:33:18;;;;;;;6.53;2.90;;;;;;;22.98;75.91;100069.53;10418191;28;20033;-67
2022/06/29 03:38:19;;;;;;;7.18;3.00;;;;;;;23.00;71.35;99907.53;10416081;28;20045;-68
2022/06/29 03:43:20;;;;;;;6.18;2.85;;;;;;;25.06;65.26;100070.91;10418525;28;20088;-68
2022/06/29 03:48:21;;;;;;;7.95;2.75;;;;;;;25.66;61.68;99979.50;10417757;28;20045;-68
2022/06/29 03:53:21;;;;;;;5.63;2.58;;;;;;;25.97;58.25;99876.00;10416136;28;20053;-68
2022/06/29 03:58:22;;;;;;;10.00;2.10;;;;;;;27.33;56.63;100067.94;10417341;28;20137;-68
2022/06/29 04:03:23;;;;;;;10.63;2.00;;;;;;;26.84;54.22;99966.09;10416894;28;20045;-68
2022/06/29 04:08:24;;;;;;;6.20;1.67;;;;;;;27.66;53.22;100062.72;10414102;28;20072;-68
2022/06/29 04:13:25;;;;;;;13.20;2.75;;;;;;;28.02;52.62;100071.38;10414765;28;20560;-68
2022/06/29 04:18:25;;;;;;;7.00;1.88;;;;;;;28.28;50.61;100071.09;10414899;28;20397;-68
2022/06/29 04:23:26;;;;;;;13.63;1.92;;;;;;;27.67;50.00;99958.75;10411459;28;20111;-70
2022/06/29 04:28:27;;;;;;;9.52;4.55;;;;;;;27.75;48.40;99974.47;10406171;28;20402;-68
2022/06/29 04:33:29;;;;;;;15.32;2.63;;;;;;;28.33;48.29;100066.38;10409814;28;20502;-68
2022/06/29 04:38:29;;;;;;;6.53;1.83;;;;;;;28.06;47.07;100047.03;10380866;28;20088;-69
2022/06/29 04:43:30;;;;;;;9.48;2.28;;;;;;;28.40;47.13;100068.75;10380494;28;20053;-68
2022/06/29 04:48:31;;;;;;;6.40;1.33;;;;;;;28.55;45.61;100054.91;10401345;28;20045;-67
2022/06/29 04:53:32;;;;;;;12.52;1.42;;;;;;;27.87;44.36;99933.16;10414359;28;20551;-68
2022/06/29 04:58:33;;;;;;;9.20;1.77;;;;;;;28.99;44.41;100050.97;10413363;28;20087;-68
2022/06/29 05:03:34;;;;;;;4.05;1.23;;;;;;;28.79;43.08;100070.41;10414189;28;20041;-68
2022/06/29 05:08:35;;;;;;;4.65;1.15;;;;;;;28.74;42.75;100067.75;10415024;28;20049;-68
2022/06/29 05:13:36;;;;;;;3.03;1.13;;;;;;;28.06;42.62;99965.94;10414116;28;20120;-67
2022/06/29 05:18:39;;;;;;;2.78;1.02;;;;;;;28.63;42.58;100062.44;10413706;28;20140;-68
2022/06/29 05:23:40;;;;;;;16.17;2.22;;;;;;;28.75;43.43;100070.19;10413319;28;20033;-68
2022/06/29 05:28:41;;;;;;;3.85;1.17;;;;;;;28.64;42.33;100064.06;10413833;28;20041;-68
2022/06/29 05:33:41;;;;;;;5.28;1.33;;;;;;;28.68;42.85;100067.81;10413744;28;20111;-67
2022/06/29 05:38:42;;;;;;;7.25;4.30;;;;;;;28.64;40.55;100036.72;10413752;28;20455;-67
2022/06/29 05:43:44;;;;;;;14.60;3.35;;;;;;;28.68;39.22;100015.06;10413947;28;20064;-67
2022/06/29 05:48:45;;;;;;;3.77;1.60;;;;;;;28.96;39.22;100053.47;10413233;28;20099;-67
2022/06/29 05:53:49;;;;;;;5.65;1.55;;;;;;;28.73;38.76;100036.06;10400963;28;20046;-68
2022/06/29 05:58:50;;;;;;;6.87;1.97;;;;;;;28.83;38.86;100066.78;10412747;28;20041;-67
2022/06/29 06:03:51;;;;;;;12.70;2.15;;;;;;;29.08;39.97;100051.13;10412506;28;20041;-68
2022/06/29 06:08:52;;;;;;;10.57;1.58;;;;;;;28.49;38.68;99935.84;10412927;28;20049;-67
2022/06/29 06:13:52;;;;;;;3.50;1.35;;;;;;;29.19;39.85;100041.63;10411873;28;20037;-67
2022/06/29 06:18:53;;;;;;;6.88;1.13;;;;;;;29.21;39.95;100033.94;10412794;28;20041;-67
2022/06/29 06:23:54;;;;;;;3.17;1.23;;;;;;;29.25;39.59;100029.47;10427972;28;20033;-68
2022/06/29 06:28:55;;;;;;;2.78;1.10;;;;;;;28.76;36.17;99934.34;10412683;28;20500;-67
2022/06/29 06:33:56;;;;;;;6.43;1.20;;;;;;;29.30;35.70;100018.47;10419641;28;20041;-67
2022/06/29 06:38:57;;;;;;;2.53;1.20;;;;;;;29.01;36.36;99942.06;10419519;28;20082;-67
2022/06/29 06:44:00;;;;;;;5.03;1.40;;;;;;;29.74;35.66;100040.97;10419803;28;20088;-66
2022/06/29 06:49:00;;;;;;;4.78;1.05;;;;;;;29.85;35.90;100036.09;10418809;28;20041;-68
2022/06/29 06:54:01;;;;;;;3.10;1.17;;;;;;;29.88;34.20;100028.06;10419443;28;20056;-69
2022/06/29 06:59:02;;;;;;;21.63;1.60;;;;;;;28.61;35.02;99824.16;10419850;28;20050;-68
2022/06/29 07:04:03;;;;;;;5.43;1.08;;;;;;;29.49;35.40;99943.69;10419424;28;20044;-67
2022/06/29 07:09:04;;;;;;;4.07;1.20;;;;;;;30.25;33.96;100029.00;10419305;28;20136;-68
2022/06/29 07:14:04;;;;;;;72.38;6.20;;;;;;;30.41;35.95;100026.72;10419227;28;20044;-68
2022/06/29 07:19:05;;;;;;;5.13;1.10;;;;;;;30.39;35.98;100026.22;10419271;28;20042;-67
2022/06/29 07:24:06;;;;;;;6.07;1.33;;;;;;;29.77;33.92;99923.44;10418674;28;20064;-67
2022/06/29 07:29:07;;;;;;;10.52;1.33;;;;;;;30.44;33.77;100026.91;10418545;28;20048;-69
2022/06/29 07:34:08;;;;;;;4.05;1.20;;;;;;;30.42;33.16;99989.97;10418913;28;20049;-67
2022/06/29 07:39:09;;;;;;;7.32;1.30;;;;;;;30.17;32.81;99996.81;10417874;28;20512;-67
2022/06/29 07:44:10;;;;;;;3.83;1.10;;;;;;;30.37;32.53;100014.78;10417253;28;20055;-67
2022/06/29 07:49:11;;;;;;;2.85;1.15;;;;;;;30.41;32.71;100015.75;10418080;28;20077;-66
2022/06/29 07:54:12;;;;;;;8.38;1.25;;;;;;;30.60;33.13;100021.88;10417683;28;20056;-68
2022/06/29 07:59:13;;;;;;;4.35;1.50;;;;;;;31.01;32.46;100020.13;10407178;28;20042;-67
2022/06/29 08:04:14;;;;;;;4.75;1.10;;;;;;;31.22;32.52;100007.53;10378636;28;20038;-68
2022/06/29 08:09:14;;;;;;;15.60;1.95;;;;;;;31.11;32.76;99976.81;10376094;28;20060;-68
2022/06/29 08:14:15;;;;;;;3.35;1.20;;;;;;;31.34;32.61;100007.78;10380356;28;20113;-74
2022/06/29 08:19:17;;;;;;;13.52;2.70;;;;;;;31.78;32.20;100016.22;10409274;28;20048;-73
2022/06/29 08:24:18;;;;;;;3.15;1.60;;;;;;;31.68;31.57;100020.06;10386349;28;20552;-72
2022/06/29 08:29:20;;;;;;;6.38;1.42;;;;;;;31.85;32.18;100011.06;10397538;28;20140;-73
2022/06/29 08:34:27;;;;;;;4.40;1.20;;;;;;;31.77;31.82;99995.34;10406312;28;20088;-73
2022/06/29 08:39:28;;;;;;;4.45;1.33;;;;;;;31.66;32.20;99999.53;10402748;28;20053;-74
2022/06/29 08:44:32;;;;;;;11.27;1.92;;;;;;;31.00;31.87;99939.78;10404673;28;20448;-73
2022/06/29 08:49:34;;;;;;;5.38;1.40;;;;;;;30.92;32.88;99954.25;10395517;28;20469;-72
2022/06/29 08:54:42;;;;;;;3.67;1.23;;;;;;;30.95;31.69;99983.00;10398032;28;20045;-72
2022/06/29 08:59:44;;;;;;;6.57;1.35;;;;;;;31.18;32.07;100003.78;10405885;28;20291;-73
2022/06/29 09:04:45;;;;;;;5.17;1.20;;;;;;;31.38;32.68;99983.25;10401916;28;20056;-73
2022/06/29 09:10:03;;;;;;;10.63;1.50;;;;;;;30.27;32.83;99774.69;10401039;28;20300;-74
2022/06/29 09:15:07;;;;;;;3.65;0.95;;;;;;;31.71;31.95;99974.66;10402613;28;20116;-74
2022/06/29 09:20:12;;;;;;;3.70;1.02;;;;;;;31.43;30.52;99883.50;10410576;28;20045;-74
2022/06/29 09:25:24;;;;;;;5.85;1.33;;;;;;;31.50;30.21;99859.97;10403529;28;20061;-73
2022/06/29 09:30:29;;;;;;;19.80;1.93;;;;;;;32.30;31.16;99958.63;10379980;28;20037;-75
2022/06/29 09:35:30;;;;;;;8.98;1.20;;;;;;;32.34;30.35;99959.63;10413230;28;20163;-74
2022/06/29 09:40:31;;;;;;;9.48;1.25;;;;;;;32.44;30.45;99947.47;10403389;28;20176;-72
2022/06/29 09:45:32;;;;;;;6.15;1.23;;;;;;;32.59;29.76;99944.25;10373036;28;20045;-73
2022/06/29 09:50:34;;;;;;;6.88;1.60;;;;;;;32.71;29.29;99966.41;10372487;28;20132;-73
2022/06/29 09:55:35;;;;;;;46.60;3.83;;;;;;;32.84;30.85;99944.53;10371893;28;20049;-74
2022/06/29 10:06:04;;;;;;;2.72;1.02;;;;;;;33.03;28.77;99936.78;10373198;28;20042;-72
2022/06/29 10:16:47;;;;;;;11.05;1.60;;;;;;;32.67;28.27;99862.91;10380609;28;20046;-72
2022/06/29 10:21:49;;;;;;;8.02;1.70;;;;;;;33.21;28.28;99920.19;10380195;28;20029;-72
2022/06/29 10:26:50;;;;;;;7.55;1.70;;;;;;;33.24;28.11;99925.06;10380250;28;20451;-74
2022/06/29 10:31:54;;;;;;;4.82;1.33;;;;;;;33.35;27.75;99926.28;10379849;28;20042;-72
2022/06/29 10:37:04;;;;;;;4.60;1.20;;;;;;;33.41;27.11;99924.94;10390811;28;20049;-71
2022/06/29 10:47:24;;;;;;;8.95;1.67;;;;;;;33.56;28.63;99907.09;10413514;28;20393;-73
2022/06/29 10:52:26;;;;;;;4.35;1.30;;;;;;;33.61;27.64;99912.41;10413294;28;20037;-73
2022/06/29 10:57:27;;;;;;;5.80;1.70;;;;;;;33.58;27.43;99905.63;10406348;28;20409;-74
2022/06/29 11:02:28;;;;;;;6.35;1.63;;;;;;;33.55;27.67;99888.97;10408597;28;20049;-74
2022/06/29 11:12:52;;;;;;;8.10;1.40;;;;;;;33.42;26.70;99871.50;10410622;28;20167;-72
2022/06/29 11:17:53;;;;;;;5.63;1.40;;;;;;;33.53;26.64;99905.78;10410238;28;20092;-73
2022/06/29 11:22:55;;;;;;;16.00;2.40;;;;;;;33.61;27.71;99912.41;10411246;28;20460;-72
2022/06/29 11:27:56;;;;;;;19.50;2.90;;;;;;;33.19;27.68;99813.97;10413229;28;20049;-71
2022/06/29 11:32:57;;;;;;;8.18;1.90;;;;;;;32.69;27.29;99718.41;10418764;28;20041;-72
2022/06/29 11:38:05;;;;;;;11.10;1.90;;;;;;;33.82;27.37;99891.19;10400156;28;20046;-72
2022/06/29 11:43:08;;;;;;;7.38;1.65;;;;;;;33.95;27.46;99905.84;10375763;28;20061;-74
2022/06/29 11:48:31;;;;;;;6.00;1.40;;;;;;;33.91;27.15;99901.34;10432807;28;20046;-72
2022/06/29 11:53:47;;;;;;;5.18;1.50;;;;;;;33.79;25.90;99900.13;10415798;28;20045;-73
2022/06/29 11:58:52;;;;;;;9.93;1.70;;;;;;;33.62;27.01;99875.44;10376009;28;20042;-73
2022/06/29 12:03:58;;;;;;;8.20;1.35;;;;;;;33.86;26.37;99894.91;10375354;28;20045;-74
2022/06/29 12:08:59;;;;;;;16.02;1.42;;;;;;;33.85;25.58;99884.22;10402074;28;20497;-73
2022/06/29 12:14:00;;;;;;;6.70;1.63;;;;;;;33.09;25.41;99759.34;10376350;28;20045;-73
2022/06/29 12:19:00;;;;;;;10.60;1.88;;;;;;;33.39;24.83;99820.66;10386488;28;20099;-73
2022/06/29 12:24:01;;;;;;;6.43;1.65;;;;;;;33.74;25.57;99881.03;10410482;28;20050;-73
2022/06/29 12:29:02;;;;;;;6.15;1.30;;;;;;;33.83;25.68;99842.41;10393375;28;20053;-74
2022/06/29 12:34:04;;;;;;;10.25;1.67;;;;;;;33.98;25.05;99869.34;10390306;28;20473;-74
2022/06/29 12:39:06;;;;;;;8.30;1.40;;;;;;;32.71;25.51;99676.84;10374752;28;20042;-74
2022/06/29 12:44:07;;;;;;;4.90;1.60;;;;;;;34.02;25.14;99877.78;10410879;28;20052;-74
2022/06/29 12:49:08;;;;;;;7.10;1.40;;;;;;;33.95;24.65;99855.44;10412552;28;20079;-74
2022/06/29 12:54:09;;;;;;;21.30;12.27;;;;;;;33.51;25.21;99781.44;10409652;28;20136;-74
2022/06/29 12:59:10;;;;;;;7.43;2.80;;;;;;;33.98;25.35;99863.84;10407613;28;20069;-73
2022/06/29 13:04:11;;;;;;;30.88;3.33;;;;;;;33.82;25.48;99860.09;10408397;28;20033;-75
2022/06/29 13:09:12;;;;;;;6.38;1.45;;;;;;;33.78;25.89;99853.66;10424190;28;20045;-74
2022/06/29 13:14:15;;;;;;;6.10;1.30;;;;;;;33.41;25.44;99809.31;10407216;28;20041;-74
2022/06/29 13:19:16;;;;;;;6.22;1.40;;;;;;;33.68;25.28;99862.28;10408802;28;20045;-73
2022/06/29 13:24:16;;;;;;;11.48;1.65;;;;;;;32.83;25.16;99722.88;10394773;28;20042;-73
2022/06/29 13:29:17;;;;;;;14.57;1.75;;;;;;;33.86;25.96;99858.28;10412452;28;20731;-73
2022/06/29 13:34:19;;;;;;;27.35;2.22;;;;;;;33.18;25.51;99751.81;10413637;28;20069;-73
2022/06/29 13:39:20;;;;;;;9.20;1.83;;;;;;;33.40;26.02;99824.22;10413612;28;20060;-73
2022/06/29 13:44:20;;;;;;;8.65;1.65;;;;;;;32.60;26.45;99741.59;10412115;28;20037;-73
2022/06/29 13:49:21;;;;;;;8.70;1.35;;;;;;;32.70;27.75;99794.28;10412864;28;20045;-72
2022/06/29 13:54:22;;;;;;;10.48;1.58;;;;;;;32.67;27.35;99822.44;10413364;28;20097;-72
2022/06/29 13:59:23;;;;;;;12.65;1.90;;;;;;;32.45;27.48;99751.97;10411337;28;20065;-72
2022/06/29 14:04:24;;;;;;;4.90;1.35;;;;;;;32.74;27.14;99805.44;10411971;28;20041;-72
2022/06/29 14:09:24;;;;;;;7.60;1.50;;;;;;;32.63;27.79;99815.16;10412183;28;20056;-72
2022/06/29 14:14:25;;;;;;;6.43;1.40;;;;;;;32.56;28.24;99843.19;10412436;28;20045;-73
2022/06/29 14:19:26;;;;;;;4.15;1.20;;;;;;;32.44;28.59;99843.03;10411725;28;20489;-73
2022/06/29 14:24:27;;;;;;;38.00;2.95;;;;;;;31.76;28.73;99725.41;10413331;28;20046;-72
2022/06/29 14:29:28;;;;;;;6.22;1.40;;;;;;;32.37;28.34;99842.69;10412066;28;20183;-73
2022/06/29 14:34:29;;;;;;;6.88;1.48;;;;;;;31.55;28.89;99730.75;10412030;28;20120;-73
2022/06/29 14:39:30;;;;;;;12.05;1.50;;;;;;;31.96;29.00;99846.78;10412813;28;20140;-73
2022/06/29 14:44:31;;;;;;;6.85;1.50;;;;;;;31.84;30.15;99855.63;10412042;28;20052;-73
2022/06/29 14:49:32;;;;;;;10.50;1.85;;;;;;;31.61;29.88;99852.22;10411904;28;20045;-73
2022/06/29 14:54:32;;;;;;;25.90;2.60;;;;;;;30.77;31.23;99751.72;10417512;28;20064;-73
2022/06/29 14:59:33;;;;;;;33.03;4.45;;;;;;;31.15;32.26;99846.09;10419931;28;20467;-73
2022/06/29 15:04:34;;;;;;;25.05;2.72;;;;;;;30.63;32.58;99787.44;10419521;28;20124;-73
2022/06/29 15:09:35;;;;;;;29.38;3.10;;;;;;;31.01;33.40;99875.56;10418210;28;20052;-73
2022/06/29 15:14:36;;;;;;;15.25;3.10;;;;;;;30.14;33.31;99761.84;10419267;28;20045;-72
2022/06/29 15:19:37;;;;;;;40.58;5.50;;;;;;;29.32;36.04;99663.31;10415867;28;20037;-67
2022/06/29 15:24:38;;;;;;;31.60;4.55;;;;;;;29.77;36.58;99750.16;10410780;28;20576;-67
2022/06/29 15:29:39;;;;;;;27.88;3.25;;;;;;;30.44;35.67;99858.94;10418632;28;20087;-67
2022/06/29 15:39:58;;;;;;;8.32;2.17;;;;;;;30.37;33.66;99862.13;10417691;28;20107;-67
2022/06/29 15:44:59;;;;;;;13.38;2.30;;;;;;;30.47;33.86;99894.75;10417609;28;20076;-67
2022/06/29 15:50:00;;;;;;;13.73;2.65;;;;;;;30.40;34.13;99891.63;10418005;28;20048;-68
2022/06/29 16:00:20;;;;;;;45.97;8.00;;;;;;;30.03;36.74;99859.88;10417352;28;20038;-67
2022/06/29 16:05:21;;;;;;;22.10;6.30;;;;;;;29.17;37.56;99753.94;10417116;28;20038;-67
2022/06/29 16:10:23;;;;;;;37.88;9.35;;;;;;;29.71;39.75;99888.28;10409257;28;20136;-67
2022/06/29 16:15:23;;;;;;;36.55;7.63;;;;;;;29.16;39.78;99828.88;10414951;28;20529;-67
2022/06/29 16:20:24;;;;;;;28.52;5.80;;;;;;;29.05;41.78;99850.16;10416214;28;20044;-67
2022/06/29 16:25:25;;;;;;;38.88;8.73;;;;;;;29.13;42.76;99885.00;10408476;28;20052;-66
2022/06/29 16:30:26;;;;;;;17.95;3.85;;;;;;;29.09;40.54;99862.13;10405843;28;20072;-67
2022/06/29 16:35:27;;;;;;;22.00;4.82;;;;;;;28.99;43.17;99873.22;10398324;28;20495;-67
2022/06/29 16:40:28;;;;;;;81.85;8.48;;;;;;;28.01;44.66;99753.06;10389177;28;20158;-67
2022/06/29 16:45:29;;;;;;;61.40;8.43;;;;;;;28.24;45.39;99822.31;10392175;28;20096;-66
2022/06/29 16:50:30;;;;;;;44.38;10.35;;;;;;;28.36;44.26;99851.88;10411755;28;20136;-66
2022/06/29 16:55:31;;;;;;;32.85;8.98;;;;;;;27.72;45.03;99783.22;10408525;28;20408;-66
2022/06/29 17:00:31;;;;;;;28.00;6.25;;;;;;;28.16;43.20;99875.69;10410417;28;20045;-67
2022/06/29 17:05:32;;;;;;;24.10;6.00;;;;;;;27.32;42.82;99758.16;10414112;28;20120;-67
2022/06/29 17:10:34;;;;;;;19.45;5.85;;;;;;;27.97;42.51;99889.34;10414925;28;20052;-66
2022/06/29 17:15:35;;;;;;;13.07;4.20;;;;;;;27.79;41.91;99883.84;10414159;28;20061;-66
2022/06/29 17:20:35;;;;;;;20.10;3.35;;;;;;;27.75;41.74;99895.31;10414307;28;20156;-67
2022/06/29 17:25:36;;;;;;;16.55;3.30;;;;;;;27.33;41.77;99846.22;10386222;28;20049;-67
2022/06/29 17:30:37;;;;;;;12.75;3.22;;;;;;;27.48;42.28;99903.31;10406088;28;20068;-66
2022/06/29 17:35:38;;;;;;;12.50;3.25;;;;;;;27.30;42.82;99911.16;10413170;28;20087;-66
2022/06/29 17:40:39;;;;;;;32.40;15.32;;;;;;;27.04;43.25;99905.16;10376570;28;20066;-66
2022/06/29 17:45:40;;;;;;;44.97;9.98;;;;;;;25.57;44.06;99700.22;10372957;28;20073;-66
2022/06/29 17:50:41;;;;;;;16.83;5.60;;;;;;;26.72;44.79;99919.34;10373043;28;20065;-66
2022/06/29 17:55:42;;;;;;;31.33;7.35;;;;;;;26.52;45.51;99931.19;10372616;28;20049;-66
2022/06/29 18:00:42;;;;;;;21.88;7.40;;;;;;;25.81;45.22;99823.53;10372681;28;20541;-66
2022/06/29 18:05:43;;;;;;;34.45;5.45;;;;;;;25.73;45.69;99844.00;10375998;28;20045;-66
2022/06/29 18:10:44;;;;;;;30.20;7.00;;;;;;;26.13;46.32;99929.25;10382874;28;20050;-66
2022/06/29 18:15:45;;;;;;;28.17;5.68;;;;;;;25.15;45.99;99800.22;10388435;28;20034;-66
2022/06/29 18:20:46;;;;;;;31.75;6.47;;;;;;;25.92;46.09;99920.38;10372089;28;20125;-66
2022/06/29 18:25:46;;;;;;;33.00;5.30;;;;;;;25.95;46.71;99941.59;10371672;28;20457;-66
2022/06/29 18:30:49;;;;;;;26.50;4.90;;;;;;;25.85;46.85;99928.06;10379194;28;20153;-68
2022/06/29 18:35:50;;;;;;;17.93;3.67;;;;;;;25.83;46.19;99932.94;10380198;28;20037;-67
2022/06/29 18:40:50;;;;;;;14.18;3.60;;;;;;;25.90;45.86;99927.19;10380180;28;20141;-67
2022/06/29 18:45:52;;;;;;;11.27;3.78;;;;;;;25.69;44.59;99883.72;10379059;28;20128;-67
2022/06/29 18:50:54;;;;;;;8.45;3.22;;;;;;;26.03;44.57;99933.94;10379335;28;20136;-66
2022/06/29 18:55:55;;;;;;;16.08;3.13;;;;;;;26.04;44.00;99930.94;10378773;28;20088;-67
2022/06/29 19:00:57;;;;;;;15.40;2.97;;;;;;;26.00;44.03;99937.25;10379409;28;20041;-67
2022/06/29 19:05:58;;;;;;;16.73;3.45;;;;;;;25.22;44.58;99841.53;10378496;28;20037;-67
2022/06/29 19:11:50;;;;;;;9.98;3.42;;;;;;;25.82;44.88;99949.56;10378007;28;20033;-67
2022/06/29 19:16:19;;;;;;;11.15;2.90;;;;;;;25.70;45.14;99958.81;10378103;28;20263;-67
2022/06/29 19:21:20;;;;;;;9.80;3.00;;;;;;;25.58;46.03;99979.28;10377770;28;20038;-69
2022/06/29 19:26:21;;;;;;;13.10;3.83;;;;;;;25.36;46.33;99969.50;10378117;28;20041;-67
2022/06/29 19:31:22;;;;;;;12.05;3.75;;;;;;;25.39;46.93;99982.56;10378307;28;20049;-66
2022/06/29 19:36:24;;;;;;;12.68;3.50;;;;;;;24.55;47.62;99881.53;10377653;28;20053;-67
2022/06/29 19:41:25;;;;;;;10.75;3.45;;;;;;;25.20;48.09;99990.47;10376580;28;20054;-67
2022/06/29 19:46:27;;;;;;;14.27;2.95;;;;;;;25.05;50.12;99999.41;10377806;28;20042;-66
2022/06/29 19:51:28;;;;;;;36.80;4.95;;;;;;;24.79;51.29;99967.91;10375742;28;20041;-66
2022/06/29 19:56:28;;;;;;;20.98;3.60;;;;;;;24.75;52.61;99977.69;10376140;28;20109;-66
2022/06/29 20:01:29;;;;;;;29.73;3.88;;;;;;;23.95;54.53;99880.34;10376764;28;20030;-66
2022/06/29 20:06:30;;;;;;;31.98;3.65;;;;;;;24.49;55.52;99985.78;10377067;28;20069;-66
2022/06/29 20:11:31;;;;;;;29.92;3.42;;;;;;;24.27;56.70;99979.75;10375980;28;20061;-66
2022/06/29 20:16:32;;;;;;;25.08;3.50;;;;;;;23.74;57.87;99911.22;10375324;28;20042;-66
2022/06/29 20:21:34;;;;;;;17.20;3.35;;;;;;;24.50;58.32;100041.75;10375353;28;20501;-66
2022/06/29 20:26:35;;;;;;;29.92;3.70;;;;;;;23.88;59.36;99939.47;10375859;28;20087;-68
2022/06/29 20:31:36;;;;;;;20.92;2.63;;;;;;;24.40;60.83;100030.81;10375535;28;20075;-67
2022/06/29 20:36:37;;;;;;;24.67;2.80;;;;;;;24.17;62.50;100010.41;10374398;28;20084;-67
2022/06/29 20:41:38;;;;;;;15.07;2.78;;;;;;;23.89;63.36;99996.16;10374685;28;20144;-67
2022/06/29 20:46:44;;;;;;;21.10;2.67;;;;;;;23.96;66.14;100023.06;10388300;28;20520;-68
2022/06/29 20:51:44;;;;;;;16.50;3.03;;;;;;;23.80;65.19;100010.50;10415653;28;20132;-67
2022/06/29 20:56:45;;;;;;;24.08;2.95;;;;;;;23.61;66.26;100002.78;10415805;28;20128;-67
2022/06/29 21:01:46;;;;;;;19.10;3.13;;;;;;;23.50;66.33;100011.09;10415543;28;20037;-67
2022/06/29 21:06:55;;;;;;;16.02;2.45;;;;;;;23.44;67.29;100019.19;10413792;28;20045;-67
2022/06/29 21:11:56;;;;;;;18.52;2.13;;;;;;;23.23;67.63;99990.34;10414917;28;20049;-67
2022/06/29 21:16:57;;;;;;;22.20;2.55;;;;;;;23.29;67.67;100007.44;10414461;28;20103;-67
2022/06/29 21:21:59;;;;;;;7.97;2.25;;;;;;;23.24;68.23;100009.06;10413776;28;20561;-67
2022/06/29 21:26:59;;;;;;;14.85;2.60;;;;;;;22.93;68.69;99975.44;10414858;28;20432;-67
2022/06/29 21:32:01;;;;;;;16.90;2.40;;;;;;;23.10;68.98;100017.88;10413357;28;20042;-67
2022/06/29 21:37:02;;;;;;;19.60;2.72;;;;;;;22.34;69.29;99891.53;10414786;28;20057;-66
2022/06/29 21:42:04;;;;;;;22.05;2.72;;;;;;;22.28;69.73;99892.56;10413834;28;20061;-67
2022/06/29 21:47:05;;;;;;;7.47;2.00;;;;;;;22.96;69.97;100004.75;10403655;28;20041;-67
2022/06/29 21:52:06;;;;;;;12.02;2.03;;;;;;;22.81;70.98;100006.47;10374771;28;20056;-67
2022/06/29 21:57:07;;;;;;;9.85;1.83;;;;;;;22.05;71.57;99894.50;10372570;28;20440;-67
2022/06/29 22:02:07;;;;;;;14.25;2.28;;;;;;;22.62;72.72;99993.31;10370684;28;20070;-67
2022/06/29 22:07:08;;;;;;;12.73;2.40;;;;;;;22.29;73.46;99976.22;10372355;28;20056;-67
2022/06/29 22:12:09;;;;;;;9.98;2.17;;;;;;;22.41;73.89;100005.03;10371681;28;20052;-67
2022/06/29 22:17:10;;;;;;;21.50;2.92;;;;;;;22.14;74.81;99980.56;10372257;28;20464;-67
2022/06/29 22:22:11;;;;;;;17.55;3.00;;;;;;;22.16;75.61;100017.13;10371838;28;20045;-67
2022/06/29 22:27:12;;;;;;;17.48;2.83;;;;;;;22.04;76.40;99997.50;10372042;28;20569;-67
2022/06/29 22:32:12;;;;;;;11.20;2.83;;;;;;;21.95;77.28;100007.94;10371436;28;20532;-67
2022/06/29 22:37:13;;;;;;;10.80;2.30;;;;;;;21.80;78.03;99997.75;10372196;28;20044;-67
2022/06/29 22:42:14;;;;;;;7.63;1.98;;;;;;;21.55;78.64;99975.81;10372284;28;20471;-67
2022/06/29 22:47:15;;;;;;;17.05;2.70;;;;;;;21.55;79.28;99976.63;10371012;28;20050;-67
2022/06/29 22:52:16;;;;;;;11.45;2.42;;;;;;;21.69;79.58;100033.84;10370963;28;20045;-67
2022/06/29 22:57:17;;;;;;;13.18;2.20;;;;;;;21.53;80.19;99997.66;10371854;28;20052;-67
2022/06/29 23:02:18;;;;;;;12.45;2.53;;;;;;;21.50;80.93;100017.06;10371600;28;20041;-67
2022/06/29 23:07:21;;;;;;;12.35;2.45;;;;;;;20.63;82.00;99888.78;10371321;28;20041;-67
2022/06/29 23:12:30;;;;;;;12.32;2.60;;;;;;;21.16;82.27;99979.25;10371118;28;20049;-67
2022/06/29 23:17:32;;;;;;;6.88;2.15;;;;;;;21.29;82.58;100017.81;10376963;28;20038;-67
2022/06/29 23:22:34;;;;;;;9.68;2.10;;;;;;;21.40;82.64;100036.66;10378322;28;20191;-67
2022/06/29 23:27:34;;;;;;;11.02;2.80;;;;;;;21.39;83.13;100031.53;10378087;28;20535;-69
2022/06/29 23:32:35;;;;;;;7.90;2.28;;;;;;;20.51;83.12;99890.72;10377224;28;20042;-67
2022/06/29 23:37:36;;;;;;;13.88;2.38;;;;;;;21.34;83.85;100029.50;10378363;28;20065;-67
2022/06/29 23:42:37;;;;;;;11.30;2.33;;;;;;;20.94;84.37;99981.06;10377776;28;20607;-67
2022/06/29 23:47:38;;;;;;;13.30;2.35;;;;;;;21.22;84.97;100065.78;10376755;28;20044;-67